createdAt,value
2022-09-01T00:00:15.167Z,14.64
2022-09-01T00:02:45.683Z,14.63
2022-09-01T00:05:14.379Z,14.58
2022-09-01T00:07:43.065Z,14.53
2022-09-01T00:10:11.776Z,14.55
2022-09-01T00:12:40.820Z,14.48
2022-09-01T00:15:12.546Z,14.42
2022-09-01T00:17:41.164Z,14.33
2022-09-01T00:20:13.430Z,14.31
2022-09-01T00:22:43.535Z,14.25
2022-09-01T00:25:11.982Z,14.25
2022-09-01T00:27:40.280Z,14.23
2022-09-01T00:30:10.520Z,14.24
2022-09-01T00:32:38.893Z,14.21
2022-09-01T00:35:08.778Z,14.24
2022-09-01T00:37:38.438Z,14.21
2022-09-01T00:40:10.552Z,14.22
2022-09-01T00:42:39.824Z,14.19
2022-09-01T00:45:11.367Z,14.20
2022-09-01T00:47:40.132Z,14.20
2022-09-01T00:50:11.529Z,14.17
2022-09-01T00:52:46.708Z,14.15
2022-09-01T00:55:22.668Z,14.15
2022-09-01T00:57:51.419Z,14.16
2022-09-01T01:00:23.936Z,14.17
2022-09-01T01:02:56.332Z,14.12
2022-09-01T01:05:28.436Z,14.12
2022-09-01T01:07:59.206Z,14.13
2022-09-01T01:10:29.058Z,14.14
2022-09-01T01:12:57.392Z,14.10
2022-09-01T01:15:25.905Z,14.09
2022-09-01T01:17:54.317Z,14.12
2022-09-01T01:20:46.447Z,14.07
2022-09-01T01:23:22.814Z,14.11
2022-09-01T01:25:55.955Z,14.14
2022-09-01T01:28:28.014Z,14.09
2022-09-01T01:31:04.922Z,14.09
2022-09-01T01:33:42.815Z,14.07
2022-09-01T01:36:16.195Z,14.06
2022-09-01T01:38:49.038Z,14.04
2022-09-01T01:41:20.511Z,14.03
2022-09-01T01:43:51.076Z,14.05
2022-09-01T01:46:22.807Z,14.05
2022-09-01T01:48:52.467Z,14.01
2022-09-01T01:51:25.009Z,13.99
2022-09-01T01:53:55.325Z,13.98
2022-09-01T01:56:26.131Z,13.94
2022-09-01T01:58:56.512Z,13.96
2022-09-01T02:01:28.879Z,13.92
2022-09-01T02:03:59.186Z,13.91
2022-09-01T02:06:30.054Z,13.86
2022-09-01T02:09:03.984Z,13.87
2022-09-01T02:11:37.834Z,13.86
2022-09-01T02:14:10.225Z,13.78
2022-09-01T02:16:39.057Z,13.79
2022-09-01T02:19:12.192Z,13.76
2022-09-01T02:21:44.590Z,13.76
2022-09-01T02:24:12.985Z,13.69
2022-09-01T02:26:48.965Z,13.68
2022-09-01T02:29:23.892Z,13.62
2022-09-01T02:31:54.964Z,13.61
2022-09-01T02:34:27.708Z,13.58
2022-09-01T02:36:58.899Z,13.57
2022-09-01T02:39:32.711Z,13.53
2022-09-01T02:42:02.810Z,13.53
2022-09-01T02:44:32.737Z,13.50
2022-09-01T02:47:02.069Z,13.48
2022-09-01T02:49:31.455Z,13.47
2022-09-01T02:52:02.742Z,13.44
2022-09-01T02:54:33.504Z,13.47
2022-09-01T02:57:04.076Z,13.47
2022-09-01T02:59:34.706Z,13.43
2022-09-01T03:02:03.068Z,13.44
2022-09-01T03:04:35.104Z,13.41
2022-09-01T03:07:04.501Z,13.44
2022-09-01T03:09:35.168Z,13.49
2022-09-01T03:12:07.206Z,13.56
2022-09-01T03:14:36.718Z,13.50
2022-09-01T03:17:05.291Z,13.51
2022-09-01T03:19:44.408Z,13.50
2022-09-01T03:22:13.701Z,13.53
2022-09-01T03:24:42.848Z,13.54
2022-09-01T03:27:12.525Z,13.54
2022-09-01T03:29:41.256Z,13.55
2022-09-01T03:32:10.129Z,13.56
2022-09-01T03:34:39.654Z,13.55
2022-09-01T03:37:09.855Z,13.57
2022-09-01T03:39:38.465Z,13.55
2022-09-01T03:42:10.879Z,13.59
2022-09-01T03:44:42.031Z,13.53
2022-09-01T03:47:15.263Z,13.59
2022-09-01T03:49:45.498Z,13.59
2022-09-01T03:52:14.740Z,13.61
2022-09-01T03:54:43.875Z,13.62
2022-09-01T03:57:13.920Z,13.65
2022-09-01T03:59:44.881Z,13.68
2022-09-01T04:02:14.667Z,13.68
2022-09-01T04:04:43.394Z,13.67
2022-09-01T04:07:19.281Z,13.69
2022-09-01T04:09:48.179Z,13.70
2022-09-01T04:12:17.242Z,13.71
2022-09-01T04:14:52.058Z,13.75
2022-09-01T04:17:38.297Z,13.78
2022-09-01T04:20:09.443Z,13.75
2022-09-01T04:22:38.386Z,13.77
2022-09-01T04:25:08.982Z,13.76
2022-09-01T04:27:40.417Z,13.77
2022-09-01T04:30:12.396Z,13.74
2022-09-01T04:32:46.900Z,13.73
2022-09-01T04:35:17.144Z,13.74
2022-09-01T04:37:48.507Z,13.75
2022-09-01T04:40:18.760Z,13.72
2022-09-01T04:42:48.110Z,13.76
2022-09-01T04:45:22.414Z,13.78
2022-09-01T04:47:51.231Z,13.84
2022-09-01T04:50:22.178Z,13.87
2022-09-01T04:53:12.077Z,13.90
2022-09-01T04:55:44.387Z,13.95
2022-09-01T04:58:18.706Z,13.97
2022-09-01T05:00:52.239Z,14.01
2022-09-01T05:03:24.515Z,13.95
2022-09-01T05:06:00.220Z,13.92
2022-09-01T05:08:32.758Z,14.00
2022-09-01T05:11:08.118Z,14.04
2022-09-01T05:13:43.558Z,14.06
2022-09-01T05:16:15.854Z,14.05
2022-09-01T05:18:50.141Z,14.13
2022-09-01T05:21:24.612Z,14.19
2022-09-01T05:23:54.281Z,14.18
2022-09-01T05:26:28.435Z,14.21
2022-09-01T05:29:01.471Z,14.32
2022-09-01T05:31:38.096Z,14.39
2022-09-01T05:34:08.069Z,14.45
2022-09-01T05:36:37.672Z,14.52
2022-09-01T05:39:09.772Z,14.61
2022-09-01T05:41:39.915Z,14.59
2022-09-01T05:44:11.335Z,14.68
2022-09-01T05:46:42.620Z,14.73
2022-09-01T05:49:16.268Z,14.66
2022-09-01T05:51:50.985Z,14.70
2022-09-01T05:54:27.407Z,14.79
2022-09-01T05:57:12.780Z,14.75
2022-09-01T05:59:53.562Z,14.88
2022-09-01T06:02:26.247Z,14.98
2022-09-01T06:04:57.594Z,15.05
2022-09-01T06:07:31.844Z,15.05
2022-09-01T06:10:02.353Z,15.08
2022-09-01T06:12:30.792Z,15.19
2022-09-01T06:14:59.369Z,15.28
2022-09-01T06:17:30.876Z,15.39
2022-09-01T06:20:10.701Z,15.34
2022-09-01T06:22:41.359Z,15.32
2022-09-01T06:25:11.408Z,15.25
2022-09-01T06:27:44.776Z,15.32
2022-09-01T06:30:20.137Z,15.44
2022-09-01T06:32:57.592Z,15.46
2022-09-01T06:35:29.909Z,15.43
2022-09-01T06:38:01.928Z,15.42
2022-09-01T06:41:04.189Z,15.61
2022-09-01T06:43:33.532Z,15.67
2022-09-01T06:46:03.592Z,15.71
2022-09-01T06:48:34.158Z,15.81
2022-09-01T06:51:15.970Z,15.89
2022-09-01T06:53:56.484Z,15.84
2022-09-01T06:56:32.262Z,15.83
2022-09-01T06:59:19.321Z,15.82
2022-09-01T07:01:52.929Z,15.81
2022-09-01T07:04:31.512Z,16.02
2022-09-01T07:10:21.411Z,16.29
2022-09-01T07:13:08.950Z,16.57
2022-09-01T07:18:33.936Z,16.71
2022-09-01T07:24:13.186Z,16.58
2022-09-01T07:26:55.449Z,16.68
2022-09-01T07:29:26.407Z,16.70
2022-09-01T07:34:47.743Z,16.80
2022-09-01T07:42:31.425Z,16.46
2022-09-01T07:43:32.643Z,17.25
2022-09-01T07:49:53.704Z,17.44
2022-09-01T07:52:07.445Z,17.64
2022-09-01T07:54:40.244Z,17.87
2022-09-01T07:57:08.586Z,17.88
2022-09-01T07:59:37.562Z,18.18
2022-09-01T08:02:19.610Z,18.23
2022-09-01T08:04:49.454Z,18.46
2022-09-01T08:07:20.555Z,18.06
2022-09-01T08:09:50.902Z,17.74
2022-09-01T08:12:19.848Z,17.77
2022-09-01T08:17:51.413Z,17.79
2022-09-01T08:20:20.748Z,17.99
2022-09-01T08:23:02.044Z,17.88
2022-09-01T08:25:38.405Z,18.09
2022-09-01T08:28:07.869Z,18.19
2022-09-01T08:30:39.714Z,18.45
2022-09-01T08:33:11.994Z,18.55
2022-09-01T08:35:48.684Z,18.65
2022-09-01T08:38:18.214Z,18.71
2022-09-01T08:40:57.472Z,18.78
2022-09-01T08:43:51.527Z,18.64
2022-09-01T08:46:34.023Z,19.07
2022-09-01T08:49:24.646Z,19.34
2022-09-01T08:52:25.308Z,19.46
2022-09-01T08:55:03.565Z,19.33
2022-09-01T08:57:37.394Z,19.40
2022-09-01T09:00:25.342Z,19.56
2022-09-01T09:03:13.437Z,19.23
2022-09-01T09:06:04.191Z,18.99
2022-09-01T09:08:56.721Z,18.99
2022-09-01T09:11:56.800Z,19.28
2022-09-01T09:14:56.337Z,19.62
2022-09-01T09:17:31.770Z,19.34
2022-09-01T09:20:02.298Z,19.14
2022-09-01T09:22:31.812Z,18.71
2022-09-01T09:25:08.858Z,18.56
2022-09-01T09:27:41.252Z,18.49
2022-09-01T09:30:17.595Z,18.20
2022-09-01T09:35:47.113Z,17.76
2022-09-01T09:38:28.925Z,17.68
2022-09-01T09:41:17.322Z,17.75
2022-09-01T09:43:59.220Z,17.71
2022-09-01T09:46:37.689Z,17.59
2022-09-01T09:49:34.240Z,17.40
2022-09-01T09:52:19.067Z,17.49
2022-09-01T09:55:04.620Z,17.74
2022-09-01T09:57:41.591Z,17.74
2022-09-01T10:00:24.591Z,18.10
2022-09-01T10:03:01.396Z,18.39
2022-09-01T10:05:43.260Z,18.34
2022-09-01T10:08:16.528Z,18.85
2022-09-01T10:10:58.409Z,19.19
2022-09-01T10:13:32.679Z,19.24
2022-09-01T10:16:05.844Z,19.52
2022-09-01T10:18:42.165Z,19.88
2022-09-01T10:21:16.454Z,20.02
2022-09-01T10:23:45.117Z,20.23
2022-09-01T10:26:23.683Z,20.57
2022-09-01T10:28:59.901Z,20.78
2022-09-01T10:31:32.738Z,20.83
2022-09-01T10:34:06.444Z,20.71
2022-09-01T10:36:37.771Z,20.43
2022-09-01T10:39:12.448Z,20.27
2022-09-01T10:41:59.844Z,20.13
2022-09-01T10:44:34.450Z,19.92
2022-09-01T10:47:14.748Z,20.13
2022-09-01T10:50:07.666Z,20.33
2022-09-01T10:53:04.983Z,20.13
2022-09-01T10:55:48.262Z,20.03
2022-09-01T11:02:25.992Z,19.73
2022-09-01T11:05:20.271Z,19.31
2022-09-01T11:08:15.022Z,19.21
2022-09-01T11:10:56.152Z,19.21
2022-09-01T11:13:37.065Z,19.03
2022-09-01T11:16:51.686Z,19.10
2022-09-01T11:19:38.804Z,19.20
2022-09-01T11:22:44.591Z,19.38
2022-09-01T11:25:40.222Z,20.10
2022-09-01T11:28:43.606Z,20.30
2022-09-01T11:31:39.907Z,20.12
2022-09-01T11:34:20.100Z,20.01
2022-09-01T11:37:01.525Z,19.99
2022-09-01T11:39:43.761Z,19.80
2022-09-01T11:42:20.057Z,19.69
2022-09-01T11:44:55.002Z,19.78
2022-09-01T11:47:28.859Z,19.76
2022-09-01T11:50:00.569Z,20.18
2022-09-01T11:52:35.939Z,20.13
2022-09-01T11:55:07.987Z,20.43
2022-09-01T11:57:40.190Z,20.46
2022-09-01T12:00:13.943Z,20.44
2022-09-01T12:02:48.867Z,20.49
2022-09-01T12:05:38.787Z,20.47
2022-09-01T12:08:18.326Z,20.37
2022-09-01T12:11:06.464Z,20.12
2022-09-01T12:13:35.934Z,19.95
2022-09-01T12:16:18.001Z,19.82
2022-09-01T12:18:51.428Z,19.71
2022-09-01T12:21:26.097Z,19.70
2022-09-01T12:23:56.247Z,19.81
2022-09-01T12:26:29.196Z,19.99
2022-09-01T12:28:58.626Z,20.44
2022-09-01T12:31:28.121Z,20.60
2022-09-01T12:33:57.904Z,20.52
2022-09-01T12:36:29.669Z,20.87
2022-09-01T12:39:18.914Z,21.12
2022-09-01T12:42:04.294Z,21.73
2022-09-01T12:44:36.288Z,21.91
2022-09-01T12:47:08.561Z,22.09
2022-09-01T12:49:50.384Z,22.31
2022-09-01T12:52:26.539Z,22.32
2022-09-01T12:58:12.215Z,22.42
2022-09-01T13:00:58.917Z,22.76
2022-09-01T13:03:29.530Z,22.78
2022-09-01T13:06:00.222Z,22.66
2022-09-01T13:08:33.187Z,22.49
2022-09-01T13:11:07.393Z,22.39
2022-09-01T13:13:37.243Z,22.29
2022-09-01T13:16:12.694Z,22.45
2022-09-01T13:21:34.594Z,23.02
2022-09-01T13:24:05.049Z,22.54
2022-09-01T13:26:33.576Z,22.85
2022-09-01T13:29:03.241Z,23.43
2022-09-01T13:31:32.142Z,24.66
2022-09-01T13:34:22.346Z,25.40
2022-09-01T13:36:52.307Z,26.20
2022-09-01T13:39:22.985Z,25.90
2022-09-01T13:41:51.745Z,26.00
2022-09-01T13:44:21.539Z,25.66
2022-09-01T13:47:00.555Z,25.22
2022-09-01T13:50:05.865Z,25.38
2022-09-01T13:52:17.508Z,25.49
2022-09-01T13:54:47.758Z,25.30
2022-09-01T13:57:16.808Z,25.41
2022-09-01T13:59:46.724Z,25.46
2022-09-01T14:02:15.057Z,25.43
2022-09-01T14:04:43.443Z,25.67
2022-09-01T14:07:11.820Z,26.06
2022-09-01T14:09:40.319Z,25.37
2022-09-01T14:12:10.112Z,25.01
2022-09-01T14:17:28.251Z,25.27
2022-09-01T14:19:57.384Z,24.82
2022-09-01T14:22:25.693Z,25.11
2022-09-01T14:24:54.094Z,25.72
2022-09-01T14:27:22.580Z,25.39
2022-09-01T14:29:54.859Z,26.04
2022-09-01T14:32:27.052Z,25.95
2022-09-01T14:34:58.112Z,26.04
2022-09-01T14:37:26.648Z,26.26
2022-09-01T14:39:57.490Z,26.69
2022-09-01T14:42:28.752Z,25.87
2022-09-01T14:44:57.424Z,25.95
2022-09-01T14:47:26.012Z,25.67
2022-09-01T14:49:56.075Z,26.21
2022-09-01T14:52:24.712Z,26.25
2022-09-01T14:54:53.097Z,26.29
2022-09-01T14:57:31.376Z,26.57
2022-09-01T15:00:11.838Z,26.75
2022-09-01T15:02:41.779Z,26.73
2022-09-01T15:05:13.627Z,26.73
2022-09-01T15:07:43.187Z,26.51
2022-09-01T15:10:16.172Z,26.56
2022-09-01T15:12:56.380Z,25.98
2022-09-01T15:15:26.141Z,24.61
2022-09-01T15:17:55.073Z,24.41
2022-09-01T15:20:43.368Z,24.31
2022-09-01T15:23:12.808Z,24.00
2022-09-01T15:25:41.295Z,23.86
2022-09-01T15:28:10.058Z,23.76
2022-09-01T15:30:39.872Z,23.08
2022-09-01T15:33:14.783Z,22.54
2022-09-01T15:35:46.197Z,21.84
2022-09-01T15:38:18.042Z,21.11
2022-09-01T15:40:55.256Z,20.79
2022-09-01T15:43:29.414Z,20.92
2022-09-01T15:45:59.297Z,20.62
2022-09-01T15:48:29.836Z,20.54
2022-09-01T15:51:31.001Z,20.64
2022-09-01T15:54:03.384Z,20.72
2022-09-01T15:56:32.652Z,20.83
2022-09-01T15:59:03.528Z,20.45
2022-09-01T16:01:35.604Z,20.21
2022-09-01T16:04:05.232Z,19.94
2022-09-01T16:06:36.793Z,19.74
2022-09-01T16:09:06.130Z,19.98
2022-09-01T16:11:36.238Z,20.23
2022-09-01T16:14:06.034Z,20.32
2022-09-01T16:16:54.459Z,20.18
2022-09-01T16:19:39.514Z,20.24
2022-09-01T16:22:22.288Z,20.31
2022-09-01T16:24:54.906Z,20.20
2022-09-01T16:27:32.061Z,20.18
2022-09-01T16:30:08.052Z,20.04
2022-09-01T16:32:36.802Z,20.10
2022-09-01T16:35:07.003Z,19.98
2022-09-01T16:37:54.222Z,19.84
2022-09-01T16:40:45.503Z,19.86
2022-09-01T16:43:30.762Z,19.94
2022-09-01T16:46:09.318Z,19.76
2022-09-01T16:48:48.095Z,19.77
2022-09-01T16:51:28.344Z,19.61
2022-09-01T16:54:24.901Z,19.63
2022-09-01T16:57:06.712Z,19.36
2022-09-01T16:59:51.963Z,19.16
2022-09-01T17:02:40.617Z,19.00
2022-09-01T17:05:26.567Z,19.01
2022-09-01T17:08:12.775Z,18.86
2022-09-01T17:10:54.118Z,18.62
2022-09-01T17:13:38.417Z,18.54
2022-09-01T17:16:12.830Z,18.41
2022-09-01T17:18:45.328Z,18.32
2022-09-01T17:21:21.784Z,18.12
2022-09-01T17:23:56.631Z,18.12
2022-09-01T17:26:30.321Z,18.11
2022-09-01T17:29:07.333Z,18.14
2022-09-01T17:31:52.039Z,18.18
2022-09-01T17:34:38.757Z,17.98
2022-09-01T17:37:23.008Z,17.84
2022-09-01T17:40:11.598Z,17.69
2022-09-01T17:42:55.556Z,17.62
2022-09-01T17:45:31.390Z,17.50
2022-09-01T17:48:10.603Z,17.37
2022-09-01T17:51:04.465Z,17.35
2022-09-01T17:53:50.872Z,17.18
2022-09-01T17:56:41.739Z,17.14
2022-09-01T17:59:23.487Z,17.02
2022-09-01T18:02:20.900Z,16.98
2022-09-01T18:05:13.001Z,16.98
2022-09-01T18:08:05.235Z,16.79
2022-09-01T18:10:41.120Z,16.59
2022-09-01T18:13:25.906Z,16.40
2022-09-01T18:16:13.742Z,16.27
2022-09-01T18:18:45.925Z,16.13
2022-09-01T18:21:20.275Z,15.97
2022-09-01T18:23:53.847Z,15.88
2022-09-01T18:26:29.709Z,15.71
2022-09-01T18:28:59.116Z,15.59
2022-09-01T18:32:04.680Z,15.39
2022-09-01T18:34:59.191Z,15.20
2022-09-01T18:37:42.617Z,15.11
2022-09-01T18:40:19.615Z,15.06
2022-09-01T18:43:01.621Z,14.89
2022-09-01T18:45:41.529Z,14.82
2022-09-01T18:48:32.139Z,14.75
2022-09-01T18:51:08.163Z,14.68
2022-09-01T18:53:48.530Z,14.63
2022-09-01T18:56:31.481Z,14.63
2022-09-01T18:59:36.707Z,14.59
2022-09-01T19:02:24.667Z,14.53
2022-09-01T19:05:00.689Z,14.48
2022-09-01T19:07:36.910Z,14.44
2022-09-01T19:10:18.316Z,14.41
2022-09-01T19:12:57.721Z,14.34
2022-09-01T19:15:35.773Z,14.35
2022-09-01T19:18:18.936Z,14.29
2022-09-01T19:20:56.307Z,14.28
2022-09-01T19:23:40.898Z,14.27
2022-09-01T19:26:18.411Z,14.25
2022-09-01T19:28:51.586Z,14.24
2022-09-01T19:31:26.887Z,14.20
2022-09-01T19:33:58.381Z,14.18
2022-09-01T19:36:40.125Z,14.11
2022-09-01T19:39:12.428Z,14.10
2022-09-01T19:41:50.077Z,14.08
2022-09-01T19:44:30.338Z,14.09
2022-09-01T19:47:08.979Z,13.99
2022-09-01T19:49:45.817Z,13.90
2022-09-01T19:52:32.365Z,13.85
2022-09-01T19:55:07.825Z,13.83
2022-09-01T19:57:45.061Z,13.73
2022-09-01T20:00:19.576Z,13.73
2022-09-01T20:02:56.463Z,13.73
2022-09-01T20:05:32.651Z,13.80
2022-09-01T20:08:09.169Z,13.69
2022-09-01T20:10:58.905Z,13.73
2022-09-01T20:14:13.003Z,13.71
2022-09-01T20:16:48.395Z,13.73
2022-09-01T20:19:28.683Z,13.74
2022-09-01T20:22:09.982Z,13.77
2022-09-01T20:24:41.035Z,13.78
2022-09-01T20:27:32.205Z,13.74
2022-09-01T20:30:07.242Z,13.71
2022-09-01T20:35:18.465Z,13.70
2022-09-01T20:37:53.028Z,13.53
2022-09-01T20:40:27.269Z,13.47
2022-09-01T20:43:18.585Z,13.41
2022-09-01T20:45:47.355Z,13.44
2022-09-01T20:48:20.140Z,13.41
2022-09-01T20:50:58.977Z,13.37
2022-09-01T20:53:40.410Z,13.32
2022-09-01T20:56:22.767Z,13.28
2022-09-01T20:59:01.667Z,13.27
2022-09-01T21:01:41.794Z,13.24
2022-09-01T21:04:20.288Z,13.20
2022-09-01T21:06:58.847Z,13.16
2022-09-01T21:09:44.292Z,13.11
2022-09-01T21:12:27.462Z,13.11
2022-09-01T21:15:10.931Z,13.09
2022-09-01T21:17:51.006Z,12.99
2022-09-01T21:20:31.012Z,13.01
2022-09-01T21:22:59.562Z,13.00
2022-09-01T21:25:28.404Z,12.98
2022-09-01T21:28:02.225Z,12.93
2022-09-01T21:30:34.890Z,12.87
2022-09-01T21:33:04.513Z,12.83
2022-09-01T21:35:33.337Z,12.76
2022-09-01T21:38:01.940Z,12.74
2022-09-01T21:40:30.965Z,12.62
2022-09-01T21:43:06.330Z,12.56
2022-09-01T21:45:37.587Z,12.47
2022-09-01T21:48:07.161Z,12.43
2022-09-01T21:50:36.139Z,12.40
2022-09-01T21:53:04.586Z,12.36
2022-09-01T21:55:33.805Z,12.34
2022-09-01T21:58:03.556Z,12.33
2022-09-01T22:00:36.590Z,12.36
2022-09-01T22:03:05.165Z,12.34
2022-09-01T22:05:35.814Z,12.26
2022-09-01T22:08:04.688Z,12.19
2022-09-01T22:10:33.443Z,12.20
2022-09-01T22:13:04.505Z,12.23
2022-09-01T22:15:32.929Z,12.19
2022-09-01T22:18:01.206Z,12.13
2022-09-01T22:20:31.976Z,12.15
2022-09-01T22:23:02.027Z,12.18
2022-09-01T22:25:33.452Z,12.17
2022-09-01T22:28:05.905Z,12.10
2022-09-01T22:30:35.296Z,12.02
2022-09-01T22:33:07.614Z,12.04
2022-09-01T22:35:35.907Z,12.01
2022-09-01T22:38:04.262Z,11.98
2022-09-01T22:40:32.656Z,11.97
2022-09-01T22:43:01.109Z,11.96
2022-09-01T22:45:30.999Z,11.95
2022-09-01T22:47:59.343Z,11.96
2022-09-01T22:50:27.670Z,11.95
2022-09-01T22:52:55.992Z,11.98
2022-09-01T22:55:25.677Z,11.92
2022-09-01T22:57:53.949Z,11.88
2022-09-01T23:00:22.615Z,11.86
2022-09-01T23:02:52.612Z,11.88
2022-09-01T23:05:22.524Z,11.87
2022-09-01T23:07:50.814Z,11.91
2022-09-01T23:10:19.244Z,11.89
2022-09-01T23:12:47.728Z,11.84
2022-09-01T23:15:16.338Z,11.80
2022-09-01T23:17:44.675Z,11.84
2022-09-01T23:20:15.473Z,11.81
2022-09-01T23:22:45.983Z,11.75
2022-09-01T23:25:17.012Z,11.72
2022-09-01T23:27:45.392Z,11.70
2022-09-01T23:30:16.412Z,11.77
2022-09-01T23:32:44.720Z,11.77
2022-09-01T23:35:14.738Z,11.77
2022-09-01T23:37:44.813Z,11.77
2022-09-01T23:40:14.240Z,11.65
2022-09-01T23:42:42.591Z,11.64
2022-09-01T23:45:12.367Z,11.65
2022-09-01T23:47:41.298Z,11.66
2022-09-01T23:50:10.866Z,11.66
2022-09-01T23:52:40.483Z,11.68
2022-09-01T23:55:10.177Z,11.72
2022-09-01T23:57:38.849Z,11.69
